sensor_id;sensor_type;location;lat;lon;timestamp;P1;durP1;ratioP1;P2;durP2;ratioP2
73980;SDS011;62348;51.412;5.436;2023-07-16T00:01:23;4.13;;;2.38;;
73980;SDS011;62348;51.412;5.436;2023-07-16T00:03:48;6.88;;;3.35;;
73980;SDS011;62348;51.412;5.436;2023-07-16T00:06:14;6.47;;;2.50;;
73980;SDS011;62348;51.412;5.436;2023-07-16T00:08:39;4.22;;;2.60;;
73980;SDS011;62348;51.412;5.436;2023-07-16T00:11:05;3.75;;;1.95;;
73980;SDS011;62348;51.412;5.436;2023-07-16T00:13:30;5.28;;;2.58;;
73980;SDS011;62348;51.412;5.436;2023-07-16T00:15:55;7.38;;;2.60;;
73980;SDS011;62348;51.412;5.436;2023-07-16T00:18:21;5.40;;;2.60;;
73980;SDS011;62348;51.412;5.436;2023-07-16T00:20:46;9.40;;;3.75;;
73980;SDS011;62348;51.412;5.436;2023-07-16T00:23:12;3.83;;;2.40;;
73980;SDS011;62348;51.412;5.436;2023-07-16T00:25:37;4.50;;;2.15;;
73980;SDS011;62348;51.412;5.436;2023-07-16T00:28:03;4.68;;;2.45;;
73980;SDS011;62348;51.412;5.436;2023-07-16T00:30:28;7.55;;;3.25;;
73980;SDS011;62348;51.412;5.436;2023-07-16T00:32:54;4.05;;;2.30;;
73980;SDS011;62348;51.412;5.436;2023-07-16T00:35:19;5.15;;;2.85;;
73980;SDS011;62348;51.412;5.436;2023-07-16T00:37:44;5.43;;;2.80;;
73980;SDS011;62348;51.412;5.436;2023-07-16T00:40:10;5.90;;;2.92;;
73980;SDS011;62348;51.412;5.436;2023-07-16T00:42:35;5.93;;;2.63;;
73980;SDS011;62348;51.412;5.436;2023-07-16T00:45:01;8.00;;;2.83;;
73980;SDS011;62348;51.412;5.436;2023-07-16T00:47:27;6.07;;;3.05;;
73980;SDS011;62348;51.412;5.436;2023-07-16T00:49:53;4.97;;;3.00;;
73980;SDS011;62348;51.412;5.436;2023-07-16T00:52:19;6.10;;;3.05;;
73980;SDS011;62348;51.412;5.436;2023-07-16T00:54:47;4.25;;;3.13;;
73980;SDS011;62348;51.412;5.436;2023-07-16T00:57:13;7.22;;;3.47;;
73980;SDS011;62348;51.412;5.436;2023-07-16T00:59:39;6.15;;;3.55;;
73980;SDS011;62348;51.412;5.436;2023-07-16T01:02:05;4.25;;;3.17;;
73980;SDS011;62348;51.412;5.436;2023-07-16T01:04:30;4.65;;;2.95;;
73980;SDS011;62348;51.412;5.436;2023-07-16T01:06:56;5.63;;;3.20;;
73980;SDS011;62348;51.412;5.436;2023-07-16T01:09:26;7.70;;;3.53;;
73980;SDS011;62348;51.412;5.436;2023-07-16T01:11:53;5.07;;;3.20;;
73980;SDS011;62348;51.412;5.436;2023-07-16T01:14:19;6.72;;;3.10;;
73980;SDS011;62348;51.412;5.436;2023-07-16T01:16:46;6.53;;;3.42;;
73980;SDS011;62348;51.412;5.436;2023-07-16T01:19:11;7.93;;;3.40;;
73980;SDS011;62348;51.412;5.436;2023-07-16T01:29:58;6.63;;;2.97;;
73980;SDS011;62348;51.412;5.436;2023-07-16T01:32:28;4.63;;;2.85;;
73980;SDS011;62348;51.412;5.436;2023-07-16T01:34:55;6.82;;;3.00;;
73980;SDS011;62348;51.412;5.436;2023-07-16T01:37:22;4.93;;;2.80;;
73980;SDS011;62348;51.412;5.436;2023-07-16T01:39:47;6.90;;;3.22;;
73980;SDS011;62348;51.412;5.436;2023-07-16T01:42:13;5.30;;;3.17;;
73980;SDS011;62348;51.412;5.436;2023-07-16T01:44:38;6.38;;;2.90;;
73980;SDS011;62348;51.412;5.436;2023-07-16T01:47:14;5.28;;;2.78;;
73980;SDS011;62348;51.412;5.436;2023-07-16T01:49:45;5.22;;;2.92;;
73980;SDS011;62348;51.412;5.436;2023-07-16T01:52:12;5.85;;;2.95;;
73980;SDS011;62348;51.412;5.436;2023-07-16T01:54:37;6.90;;;3.17;;
73980;SDS011;62348;51.412;5.436;2023-07-16T01:57:03;5.55;;;3.58;;
73980;SDS011;62348;51.412;5.436;2023-07-16T01:59:28;5.00;;;2.55;;
73980;SDS011;62348;51.412;5.436;2023-07-16T02:01:54;5.97;;;2.70;;
73980;SDS011;62348;51.412;5.436;2023-07-16T02:04:20;6.47;;;3.10;;
73980;SDS011;62348;51.412;5.436;2023-07-16T02:06:45;6.28;;;2.55;;
73980;SDS011;62348;51.412;5.436;2023-07-16T02:09:13;4.47;;;2.38;;
73980;SDS011;62348;51.412;5.436;2023-07-16T02:11:38;6.57;;;3.03;;
73980;SDS011;62348;51.412;5.436;2023-07-16T02:14:04;5.43;;;2.83;;
73980;SDS011;62348;51.412;5.436;2023-07-16T02:16:29;6.00;;;2.80;;
73980;SDS011;62348;51.412;5.436;2023-07-16T02:18:54;3.72;;;3.20;;
73980;SDS011;62348;51.412;5.436;2023-07-16T02:21:20;7.47;;;3.03;;
73980;SDS011;62348;51.412;5.436;2023-07-16T02:23:45;6.40;;;2.78;;
73980;SDS011;62348;51.412;5.436;2023-07-16T02:26:10;8.57;;;3.33;;
73980;SDS011;62348;51.412;5.436;2023-07-16T02:28:36;8.25;;;3.58;;
73980;SDS011;62348;51.412;5.436;2023-07-16T02:31:02;7.85;;;3.25;;
73980;SDS011;62348;51.412;5.436;2023-07-16T02:33:28;7.20;;;2.85;;
73980;SDS011;62348;51.412;5.436;2023-07-16T02:35:53;6.47;;;2.63;;
73980;SDS011;62348;51.412;5.436;2023-07-16T02:38:19;7.45;;;3.33;;
73980;SDS011;62348;51.412;5.436;2023-07-16T02:40:44;7.38;;;2.95;;
73980;SDS011;62348;51.412;5.436;2023-07-16T02:43:10;8.27;;;2.92;;
73980;SDS011;62348;51.412;5.436;2023-07-16T02:45:36;6.95;;;3.30;;
73980;SDS011;62348;51.412;5.436;2023-07-16T02:48:02;5.90;;;2.80;;
73980;SDS011;62348;51.412;5.436;2023-07-16T02:50:27;8.07;;;2.92;;
73980;SDS011;62348;51.412;5.436;2023-07-16T02:52:53;7.72;;;2.97;;
73980;SDS011;62348;51.412;5.436;2023-07-16T02:55:18;6.30;;;3.15;;
73980;SDS011;62348;51.412;5.436;2023-07-16T02:57:43;9.50;;;2.90;;
73980;SDS011;62348;51.412;5.436;2023-07-16T03:00:09;7.93;;;3.28;;
73980;SDS011;62348;51.412;5.436;2023-07-16T03:02:35;5.35;;;2.92;;
73980;SDS011;62348;51.412;5.436;2023-07-16T03:05:00;11.68;;;3.65;;
73980;SDS011;62348;51.412;5.436;2023-07-16T03:07:25;9.15;;;3.30;;
73980;SDS011;62348;51.412;5.436;2023-07-16T03:09:51;11.10;;;3.40;;
73980;SDS011;62348;51.412;5.436;2023-07-16T03:12:16;8.38;;;3.40;;
73980;SDS011;62348;51.412;5.436;2023-07-16T03:14:42;9.20;;;3.10;;
73980;SDS011;62348;51.412;5.436;2023-07-16T03:17:08;7.15;;;3.40;;
73980;SDS011;62348;51.412;5.436;2023-07-16T03:19:33;8.60;;;3.33;;
73980;SDS011;62348;51.412;5.436;2023-07-16T03:21:58;5.95;;;3.03;;
73980;SDS011;62348;51.412;5.436;2023-07-16T03:24:24;8.48;;;3.65;;
73980;SDS011;62348;51.412;5.436;2023-07-16T03:26:49;7.40;;;3.30;;
73980;SDS011;62348;51.412;5.436;2023-07-16T03:29:14;7.07;;;3.65;;
73980;SDS011;62348;51.412;5.436;2023-07-16T03:31:40;10.30;;;3.95;;
73980;SDS011;62348;51.412;5.436;2023-07-16T03:34:05;7.18;;;3.50;;
73980;SDS011;62348;51.412;5.436;2023-07-16T03:36:31;7.60;;;3.20;;
73980;SDS011;62348;51.412;5.436;2023-07-16T03:38:56;10.95;;;3.67;;
73980;SDS011;62348;51.412;5.436;2023-07-16T03:41:21;7.18;;;3.13;;
73980;SDS011;62348;51.412;5.436;2023-07-16T03:43:47;9.85;;;3.53;;
73980;SDS011;62348;51.412;5.436;2023-07-16T03:46:12;9.27;;;3.13;;
73980;SDS011;62348;51.412;5.436;2023-07-16T03:48:38;10.57;;;3.53;;
73980;SDS011;62348;51.412;5.436;2023-07-16T03:51:03;12.15;;;3.30;;
73980;SDS011;62348;51.412;5.436;2023-07-16T03:53:28;10.45;;;3.75;;
73980;SDS011;62348;51.412;5.436;2023-07-16T03:55:54;7.55;;;3.60;;
73980;SDS011;62348;51.412;5.436;2023-07-16T03:58:19;9.80;;;3.50;;
73980;SDS011;62348;51.412;5.436;2023-07-16T04:00:44;8.50;;;3.97;;
73980;SDS011;62348;51.412;5.436;2023-07-16T04:03:10;8.63;;;3.83;;
73980;SDS011;62348;51.412;5.436;2023-07-16T04:05:35;7.20;;;3.47;;
73980;SDS011;62348;51.412;5.436;2023-07-16T04:08:01;7.97;;;4.35;;
73980;SDS011;62348;51.412;5.436;2023-07-16T04:10:26;7.28;;;3.83;;
73980;SDS011;62348;51.412;5.436;2023-07-16T04:12:52;9.23;;;4.07;;
73980;SDS011;62348;51.412;5.436;2023-07-16T04:15:17;8.43;;;3.78;;
73980;SDS011;62348;51.412;5.436;2023-07-16T04:17:42;8.50;;;3.80;;
73980;SDS011;62348;51.412;5.436;2023-07-16T04:20:08;9.18;;;3.95;;
73980;SDS011;62348;51.412;5.436;2023-07-16T04:22:34;9.27;;;4.22;;
73980;SDS011;62348;51.412;5.436;2023-07-16T04:25:00;14.10;;;4.43;;
73980;SDS011;62348;51.412;5.436;2023-07-16T04:27:26;11.57;;;4.60;;
73980;SDS011;62348;51.412;5.436;2023-07-16T04:29:51;10.70;;;4.68;;
73980;SDS011;62348;51.412;5.436;2023-07-16T04:32:17;10.75;;;4.22;;
73980;SDS011;62348;51.412;5.436;2023-07-16T04:34:42;7.93;;;3.88;;
73980;SDS011;62348;51.412;5.436;2023-07-16T04:37:07;10.68;;;4.93;;
73980;SDS011;62348;51.412;5.436;2023-07-16T04:39:33;9.85;;;4.90;;
73980;SDS011;62348;51.412;5.436;2023-07-16T04:41:58;9.93;;;4.88;;
73980;SDS011;62348;51.412;5.436;2023-07-16T04:44:24;10.90;;;5.18;;
73980;SDS011;62348;51.412;5.436;2023-07-16T04:46:49;10.27;;;4.75;;
73980;SDS011;62348;51.412;5.436;2023-07-16T04:49:15;11.35;;;4.53;;
73980;SDS011;62348;51.412;5.436;2023-07-16T04:51:40;11.98;;;4.68;;
73980;SDS011;62348;51.412;5.436;2023-07-16T04:54:05;17.08;;;5.43;;
73980;SDS011;62348;51.412;5.436;2023-07-16T04:56:31;8.57;;;4.60;;
73980;SDS011;62348;51.412;5.436;2023-07-16T04:58:56;12.75;;;5.45;;
73980;SDS011;62348;51.412;5.436;2023-07-16T05:01:21;9.70;;;4.55;;
73980;SDS011;62348;51.412;5.436;2023-07-16T05:03:47;17.55;;;5.82;;
73980;SDS011;62348;51.412;5.436;2023-07-16T05:06:12;13.57;;;5.25;;
73980;SDS011;62348;51.412;5.436;2023-07-16T05:08:38;9.15;;;4.88;;
73980;SDS011;62348;51.412;5.436;2023-07-16T05:11:03;8.70;;;5.05;;
73980;SDS011;62348;51.412;5.436;2023-07-16T05:13:29;13.77;;;5.25;;
73980;SDS011;62348;51.412;5.436;2023-07-16T05:15:54;16.50;;;4.90;;
73980;SDS011;62348;51.412;5.436;2023-07-16T05:18:20;14.23;;;5.10;;
73980;SDS011;62348;51.412;5.436;2023-07-16T05:20:47;11.30;;;5.72;;
73980;SDS011;62348;51.412;5.436;2023-07-16T05:23:13;10.75;;;4.93;;
73980;SDS011;62348;51.412;5.436;2023-07-16T05:25:38;12.77;;;5.50;;
73980;SDS011;62348;51.412;5.436;2023-07-16T05:28:04;13.13;;;5.30;;
73980;SDS011;62348;51.412;5.436;2023-07-16T05:30:29;13.18;;;5.95;;
73980;SDS011;62348;51.412;5.436;2023-07-16T05:32:54;9.10;;;4.45;;
73980;SDS011;62348;51.412;5.436;2023-07-16T05:35:20;10.63;;;5.93;;
73980;SDS011;62348;51.412;5.436;2023-07-16T05:37:45;14.55;;;5.40;;
73980;SDS011;62348;51.412;5.436;2023-07-16T05:40:11;9.27;;;5.10;;
73980;SDS011;62348;51.412;5.436;2023-07-16T05:42:36;13.52;;;5.43;;
73980;SDS011;62348;51.412;5.436;2023-07-16T05:45:02;10.80;;;5.25;;
73980;SDS011;62348;51.412;5.436;2023-07-16T05:47:28;10.80;;;5.55;;
73980;SDS011;62348;51.412;5.436;2023-07-16T05:49:53;10.48;;;5.50;;
73980;SDS011;62348;51.412;5.436;2023-07-16T05:52:19;11.27;;;6.18;;
73980;SDS011;62348;51.412;5.436;2023-07-16T05:54:44;12.55;;;5.82;;
73980;SDS011;62348;51.412;5.436;2023-07-16T05:57:10;10.10;;;5.15;;
73980;SDS011;62348;51.412;5.436;2023-07-16T05:59:35;10.90;;;5.22;;
73980;SDS011;62348;51.412;5.436;2023-07-16T06:02:02;16.00;;;6.15;;
73980;SDS011;62348;51.412;5.436;2023-07-16T06:04:28;14.65;;;6.00;;
73980;SDS011;62348;51.412;5.436;2023-07-16T06:06:54;12.45;;;5.55;;
73980;SDS011;62348;51.412;5.436;2023-07-16T06:09:19;13.00;;;5.57;;
73980;SDS011;62348;51.412;5.436;2023-07-16T06:11:48;12.75;;;6.50;;
73980;SDS011;62348;51.412;5.436;2023-07-16T06:14:14;13.65;;;5.70;;
73980;SDS011;62348;51.412;5.436;2023-07-16T06:16:39;11.50;;;5.65;;
73980;SDS011;62348;51.412;5.436;2023-07-16T06:19:05;12.25;;;5.43;;
73980;SDS011;62348;51.412;5.436;2023-07-16T06:21:30;11.10;;;5.88;;
73980;SDS011;62348;51.412;5.436;2023-07-16T06:23:55;11.88;;;5.53;;
73980;SDS011;62348;51.412;5.436;2023-07-16T06:26:21;12.63;;;6.63;;
73980;SDS011;62348;51.412;5.436;2023-07-16T06:28:46;12.88;;;6.18;;
73980;SDS011;62348;51.412;5.436;2023-07-16T06:31:15;11.05;;;5.03;;
73980;SDS011;62348;51.412;5.436;2023-07-16T06:33:41;12.27;;;5.63;;
73980;SDS011;62348;51.412;5.436;2023-07-16T06:36:06;8.98;;;5.70;;
73980;SDS011;62348;51.412;5.436;2023-07-16T06:38:32;16.65;;;6.35;;
73980;SDS011;62348;51.412;5.436;2023-07-16T06:40:57;15.93;;;6.07;;
73980;SDS011;62348;51.412;5.436;2023-07-16T06:43:22;9.63;;;5.72;;
73980;SDS011;62348;51.412;5.436;2023-07-16T06:45:51;15.93;;;7.03;;
73980;SDS011;62348;51.412;5.436;2023-07-16T06:48:16;16.70;;;6.78;;
73980;SDS011;62348;51.412;5.436;2023-07-16T06:50:42;13.00;;;5.85;;
73980;SDS011;62348;51.412;5.436;2023-07-16T06:53:08;14.38;;;6.95;;
73980;SDS011;62348;51.412;5.436;2023-07-16T06:55:33;14.27;;;6.45;;
73980;SDS011;62348;51.412;5.436;2023-07-16T06:58:00;11.13;;;6.88;;
73980;SDS011;62348;51.412;5.436;2023-07-16T07:00:25;11.70;;;6.22;;
73980;SDS011;62348;51.412;5.436;2023-07-16T07:02:51;14.05;;;6.60;;
73980;SDS011;62348;51.412;5.436;2023-07-16T07:05:16;13.02;;;6.20;;
73980;SDS011;62348;51.412;5.436;2023-07-16T07:07:42;18.15;;;6.38;;
73980;SDS011;62348;51.412;5.436;2023-07-16T07:10:08;10.50;;;5.60;;
73980;SDS011;62348;51.412;5.436;2023-07-16T07:12:34;11.85;;;6.40;;
73980;SDS011;62348;51.412;5.436;2023-07-16T07:15:02;13.20;;;6.60;;
73980;SDS011;62348;51.412;5.436;2023-07-16T07:17:31;10.43;;;5.60;;
73980;SDS011;62348;51.412;5.436;2023-07-16T07:19:57;12.05;;;5.68;;
73980;SDS011;62348;51.412;5.436;2023-07-16T07:22:23;15.60;;;6.43;;
73980;SDS011;62348;51.412;5.436;2023-07-16T07:24:48;10.20;;;6.18;;
73980;SDS011;62348;51.412;5.436;2023-07-16T07:27:14;11.13;;;7.05;;
73980;SDS011;62348;51.412;5.436;2023-07-16T07:29:39;16.33;;;6.03;;
73980;SDS011;62348;51.412;5.436;2023-07-16T07:32:05;10.10;;;6.10;;
73980;SDS011;62348;51.412;5.436;2023-07-16T07:34:31;11.55;;;5.53;;
73980;SDS011;62348;51.412;5.436;2023-07-16T07:36:56;12.27;;;6.10;;
73980;SDS011;62348;51.412;5.436;2023-07-16T07:39:21;13.27;;;6.43;;
73980;SDS011;62348;51.412;5.436;2023-07-16T07:41:47;15.35;;;6.45;;
73980;SDS011;62348;51.412;5.436;2023-07-16T07:44:12;12.05;;;6.82;;
73980;SDS011;62348;51.412;5.436;2023-07-16T07:46:38;14.13;;;6.10;;
73980;SDS011;62348;51.412;5.436;2023-07-16T07:49:03;12.32;;;5.85;;
73980;SDS011;62348;51.412;5.436;2023-07-16T07:51:29;14.15;;;6.00;;
73980;SDS011;62348;51.412;5.436;2023-07-16T07:53:54;10.93;;;6.43;;
73980;SDS011;62348;51.412;5.436;2023-07-16T07:56:19;10.95;;;5.22;;
73980;SDS011;62348;51.412;5.436;2023-07-16T07:58:45;11.05;;;6.32;;
73980;SDS011;62348;51.412;5.436;2023-07-16T08:01:10;11.98;;;5.53;;
73980;SDS011;62348;51.412;5.436;2023-07-16T08:03:36;10.20;;;6.35;;
73980;SDS011;62348;51.412;5.436;2023-07-16T08:06:01;13.13;;;6.05;;
73980;SDS011;62348;51.412;5.436;2023-07-16T08:08:27;11.23;;;6.40;;
73980;SDS011;62348;51.412;5.436;2023-07-16T08:10:53;13.07;;;6.07;;
73980;SDS011;62348;51.412;5.436;2023-07-16T08:13:19;11.95;;;5.97;;
73980;SDS011;62348;51.412;5.436;2023-07-16T08:15:45;12.63;;;5.60;;
73980;SDS011;62348;51.412;5.436;2023-07-16T08:18:10;16.15;;;5.72;;
73980;SDS011;62348;51.412;5.436;2023-07-16T08:20:36;10.55;;;6.13;;
73980;SDS011;62348;51.412;5.436;2023-07-16T08:23:02;9.52;;;5.50;;
73980;SDS011;62348;51.412;5.436;2023-07-16T08:25:27;12.85;;;5.47;;
73980;SDS011;62348;51.412;5.436;2023-07-16T08:27:53;10.38;;;5.32;;
73980;SDS011;62348;51.412;5.436;2023-07-16T08:30:19;11.48;;;5.68;;
73980;SDS011;62348;51.412;5.436;2023-07-16T08:32:44;7.95;;;4.97;;
73980;SDS011;62348;51.412;5.436;2023-07-16T08:35:10;12.90;;;5.43;;
73980;SDS011;62348;51.412;5.436;2023-07-16T08:37:42;12.88;;;5.75;;
73980;SDS011;62348;51.412;5.436;2023-07-16T08:40:11;10.80;;;5.18;;
73980;SDS011;62348;51.412;5.436;2023-07-16T08:42:38;10.27;;;4.38;;
73980;SDS011;62348;51.412;5.436;2023-07-16T08:45:08;7.88;;;5.15;;
73980;SDS011;62348;51.412;5.436;2023-07-16T08:47:36;10.95;;;5.10;;
73980;SDS011;62348;51.412;5.436;2023-07-16T08:50:02;12.40;;;5.45;;
73980;SDS011;62348;51.412;5.436;2023-07-16T08:52:28;10.05;;;4.82;;
73980;SDS011;62348;51.412;5.436;2023-07-16T08:54:54;8.75;;;4.60;;
73980;SDS011;62348;51.412;5.436;2023-07-16T08:57:21;9.10;;;4.70;;
73980;SDS011;62348;51.412;5.436;2023-07-16T08:59:50;12.95;;;5.20;;
73980;SDS011;62348;51.412;5.436;2023-07-16T09:02:19;8.23;;;4.85;;
73980;SDS011;62348;51.412;5.436;2023-07-16T09:04:48;9.02;;;5.28;;
73980;SDS011;62348;51.412;5.436;2023-07-16T09:07:16;10.48;;;4.90;;
73980;SDS011;62348;51.412;5.436;2023-07-16T09:09:41;10.18;;;5.28;;
73980;SDS011;62348;51.412;5.436;2023-07-16T09:12:16;11.45;;;5.05;;
73980;SDS011;62348;51.412;5.436;2023-07-16T09:14:41;8.23;;;4.40;;
73980;SDS011;62348;51.412;5.436;2023-07-16T09:17:07;8.52;;;4.57;;
73980;SDS011;62348;51.412;5.436;2023-07-16T09:19:32;7.70;;;5.10;;
73980;SDS011;62348;51.412;5.436;2023-07-16T09:21:58;13.23;;;6.35;;
73980;SDS011;62348;51.412;5.436;2023-07-16T09:24:23;7.53;;;4.45;;
73980;SDS011;62348;51.412;5.436;2023-07-16T09:26:49;7.47;;;4.15;;
73980;SDS011;62348;51.412;5.436;2023-07-16T09:29:16;12.63;;;4.93;;
73980;SDS011;62348;51.412;5.436;2023-07-16T09:31:55;8.10;;;4.95;;
73980;SDS011;62348;51.412;5.436;2023-07-16T09:34:28;7.28;;;4.15;;
73980;SDS011;62348;51.412;5.436;2023-07-16T09:36:54;11.15;;;4.70;;
73980;SDS011;62348;51.412;5.436;2023-07-16T09:39:20;9.70;;;3.80;;
73980;SDS011;62348;51.412;5.436;2023-07-16T09:41:48;8.30;;;3.80;;
73980;SDS011;62348;51.412;5.436;2023-07-16T09:44:14;9.25;;;3.83;;
73980;SDS011;62348;51.412;5.436;2023-07-16T09:46:43;8.50;;;4.22;;
73980;SDS011;62348;51.412;5.436;2023-07-16T09:49:10;8.15;;;3.83;;
73980;SDS011;62348;51.412;5.436;2023-07-16T09:51:36;7.88;;;3.25;;
73980;SDS011;62348;51.412;5.436;2023-07-16T09:54:02;6.43;;;3.63;;
73980;SDS011;62348;51.412;5.436;2023-07-16T09:59:05;7.10;;;3.90;;
73980;SDS011;62348;51.412;5.436;2023-07-16T10:01:35;7.63;;;4.15;;
73980;SDS011;62348;51.412;5.436;2023-07-16T10:04:17;7.05;;;3.67;;
73980;SDS011;62348;51.412;5.436;2023-07-16T10:06:59;5.97;;;3.35;;
73980;SDS011;62348;51.412;5.436;2023-07-16T10:12:12;6.60;;;3.72;;
73980;SDS011;62348;51.412;5.436;2023-07-16T10:14:43;6.18;;;3.80;;
73980;SDS011;62348;51.412;5.436;2023-07-16T10:17:12;7.78;;;3.85;;
73980;SDS011;62348;51.412;5.436;2023-07-16T10:19:49;7.35;;;3.67;;
73980;SDS011;62348;51.412;5.436;2023-07-16T10:22:38;7.25;;;3.80;;
73980;SDS011;62348;51.412;5.436;2023-07-16T10:25:25;9.43;;;4.45;;
73980;SDS011;62348;51.412;5.436;2023-07-16T10:27:52;8.88;;;4.07;;
73980;SDS011;62348;51.412;5.436;2023-07-16T10:30:18;9.40;;;4.28;;
73980;SDS011;62348;51.412;5.436;2023-07-16T10:32:45;11.45;;;4.60;;
73980;SDS011;62348;51.412;5.436;2023-07-16T10:35:11;9.13;;;4.53;;
73980;SDS011;62348;51.412;5.436;2023-07-16T10:37:37;5.53;;;3.83;;
73980;SDS011;62348;51.412;5.436;2023-07-16T10:40:04;8.25;;;3.92;;
73980;SDS011;62348;51.412;5.436;2023-07-16T10:42:31;5.88;;;3.80;;
73980;SDS011;62348;51.412;5.436;2023-07-16T10:45:00;8.50;;;3.78;;
73980;SDS011;62348;51.412;5.436;2023-07-16T10:47:34;7.65;;;4.20;;
73980;SDS011;62348;51.412;5.436;2023-07-16T10:50:08;7.45;;;4.78;;
73980;SDS011;62348;51.412;5.436;2023-07-16T10:52:35;10.88;;;4.90;;
73980;SDS011;62348;51.412;5.436;2023-07-16T10:55:01;5.22;;;4.10;;
73980;SDS011;62348;51.412;5.436;2023-07-16T10:57:27;8.35;;;4.72;;
73980;SDS011;62348;51.412;5.436;2023-07-16T10:59:54;7.53;;;4.82;;
73980;SDS011;62348;51.412;5.436;2023-07-16T11:02:21;6.63;;;3.95;;
73980;SDS011;62348;51.412;5.436;2023-07-16T11:04:49;9.35;;;4.57;;
73980;SDS011;62348;51.412;5.436;2023-07-16T11:07:15;8.07;;;4.28;;
73980;SDS011;62348;51.412;5.436;2023-07-16T11:09:41;9.23;;;4.45;;
73980;SDS011;62348;51.412;5.436;2023-07-16T11:12:11;4.57;;;3.88;;
73980;SDS011;62348;51.412;5.436;2023-07-16T11:14:38;8.05;;;4.28;;
73980;SDS011;62348;51.412;5.436;2023-07-16T11:17:07;8.10;;;3.97;;
73980;SDS011;62348;51.412;5.436;2023-07-16T11:19:33;7.25;;;4.45;;
73980;SDS011;62348;51.412;5.436;2023-07-16T11:22:01;8.85;;;4.50;;
73980;SDS011;62348;51.412;5.436;2023-07-16T11:24:27;8.52;;;4.97;;
73980;SDS011;62348;51.412;5.436;2023-07-16T11:26:55;5.15;;;3.88;;
73980;SDS011;62348;51.412;5.436;2023-07-16T11:29:24;9.85;;;4.53;;
73980;SDS011;62348;51.412;5.436;2023-07-16T11:31:52;8.18;;;4.72;;
73980;SDS011;62348;51.412;5.436;2023-07-16T11:34:21;7.78;;;4.53;;
73980;SDS011;62348;51.412;5.436;2023-07-16T11:36:48;8.23;;;4.70;;
73980;SDS011;62348;51.412;5.436;2023-07-16T11:39:14;8.85;;;4.50;;
73980;SDS011;62348;51.412;5.436;2023-07-16T11:41:40;8.15;;;4.85;;
73980;SDS011;62348;51.412;5.436;2023-07-16T11:44:07;8.30;;;3.97;;
73980;SDS011;62348;51.412;5.436;2023-07-16T11:46:33;6.53;;;3.67;;
73980;SDS011;62348;51.412;5.436;2023-07-16T11:48:59;13.50;;;4.55;;
73980;SDS011;62348;51.412;5.436;2023-07-16T11:51:25;8.35;;;4.32;;
73980;SDS011;62348;51.412;5.436;2023-07-16T11:53:51;9.77;;;4.35;;
73980;SDS011;62348;51.412;5.436;2023-07-16T11:56:16;7.60;;;4.00;;
73980;SDS011;62348;51.412;5.436;2023-07-16T11:58:42;6.85;;;4.55;;
73980;SDS011;62348;51.412;5.436;2023-07-16T12:01:07;6.18;;;4.13;;
73980;SDS011;62348;51.412;5.436;2023-07-16T12:03:33;9.13;;;5.47;;
73980;SDS011;62348;51.412;5.436;2023-07-16T12:05:59;6.47;;;4.63;;
73980;SDS011;62348;51.412;5.436;2023-07-16T12:08:25;8.30;;;4.28;;
73980;SDS011;62348;51.412;5.436;2023-07-16T12:10:50;8.80;;;4.30;;
73980;SDS011;62348;51.412;5.436;2023-07-16T12:13:15;9.13;;;4.63;;
73980;SDS011;62348;51.412;5.436;2023-07-16T12:15:41;9.10;;;5.07;;
73980;SDS011;62348;51.412;5.436;2023-07-16T12:18:06;6.93;;;4.28;;
73980;SDS011;62348;51.412;5.436;2023-07-16T12:20:33;11.27;;;5.50;;
73980;SDS011;62348;51.412;5.436;2023-07-16T12:22:59;8.60;;;4.35;;
73980;SDS011;62348;51.412;5.436;2023-07-16T12:25:25;8.63;;;4.05;;
73980;SDS011;62348;51.412;5.436;2023-07-16T12:27:50;9.60;;;4.57;;
73980;SDS011;62348;51.412;5.436;2023-07-16T12:30:16;7.95;;;3.88;;
73980;SDS011;62348;51.412;5.436;2023-07-16T12:32:41;7.18;;;4.15;;
73980;SDS011;62348;51.412;5.436;2023-07-16T12:35:06;9.40;;;4.22;;
73980;SDS011;62348;51.412;5.436;2023-07-16T12:37:32;6.82;;;3.78;;
73980;SDS011;62348;51.412;5.436;2023-07-16T12:39:57;5.78;;;4.15;;
73980;SDS011;62348;51.412;5.436;2023-07-16T12:42:23;9.57;;;5.05;;
73980;SDS011;62348;51.412;5.436;2023-07-16T12:44:48;7.40;;;4.45;;
73980;SDS011;62348;51.412;5.436;2023-07-16T12:47:15;8.18;;;4.85;;
73980;SDS011;62348;51.412;5.436;2023-07-16T12:49:40;8.75;;;4.82;;
73980;SDS011;62348;51.412;5.436;2023-07-16T12:52:06;7.63;;;5.03;;
73980;SDS011;62348;51.412;5.436;2023-07-16T12:54:32;8.75;;;4.82;;
73980;SDS011;62348;51.412;5.436;2023-07-16T12:56:57;9.55;;;4.80;;
73980;SDS011;62348;51.412;5.436;2023-07-16T12:59:23;10.90;;;5.78;;
73980;SDS011;62348;51.412;5.436;2023-07-16T13:01:49;9.43;;;4.80;;
73980;SDS011;62348;51.412;5.436;2023-07-16T13:04:15;6.57;;;4.38;;
73980;SDS011;62348;51.412;5.436;2023-07-16T13:06:40;11.75;;;4.72;;
73980;SDS011;62348;51.412;5.436;2023-07-16T13:09:07;6.47;;;4.32;;
73980;SDS011;62348;51.412;5.436;2023-07-16T13:11:32;9.43;;;3.80;;
73980;SDS011;62348;51.412;5.436;2023-07-16T13:13:58;5.63;;;4.22;;
73980;SDS011;62348;51.412;5.436;2023-07-16T13:16:23;8.75;;;4.63;;
73980;SDS011;62348;51.412;5.436;2023-07-16T13:18:48;7.88;;;4.05;;
73980;SDS011;62348;51.412;5.436;2023-07-16T13:21:14;9.05;;;4.53;;
73980;SDS011;62348;51.412;5.436;2023-07-16T13:23:39;7.72;;;4.38;;
73980;SDS011;62348;51.412;5.436;2023-07-16T13:26:05;8.43;;;4.00;;
73980;SDS011;62348;51.412;5.436;2023-07-16T13:28:30;7.72;;;4.30;;
73980;SDS011;62348;51.412;5.436;2023-07-16T13:30:55;6.28;;;3.67;;
73980;SDS011;62348;51.412;5.436;2023-07-16T13:33:21;8.98;;;3.83;;
73980;SDS011;62348;51.412;5.436;2023-07-16T13:35:48;5.20;;;4.05;;
73980;SDS011;62348;51.412;5.436;2023-07-16T13:38:13;7.35;;;3.67;;
73980;SDS011;62348;51.412;5.436;2023-07-16T13:40:38;8.55;;;4.70;;
73980;SDS011;62348;51.412;5.436;2023-07-16T13:43:04;7.65;;;3.60;;
73980;SDS011;62348;51.412;5.436;2023-07-16T13:45:31;8.30;;;3.45;;
73980;SDS011;62348;51.412;5.436;2023-07-16T13:47:58;6.18;;;3.47;;
73980;SDS011;62348;51.412;5.436;2023-07-16T13:50:23;7.47;;;3.97;;
73980;SDS011;62348;51.412;5.436;2023-07-16T13:52:49;8.65;;;3.50;;
73980;SDS011;62348;51.412;5.436;2023-07-16T13:55:14;8.30;;;3.90;;
73980;SDS011;62348;51.412;5.436;2023-07-16T13:57:40;6.97;;;3.53;;
73980;SDS011;62348;51.412;5.436;2023-07-16T14:00:06;7.15;;;3.60;;
73980;SDS011;62348;51.412;5.436;2023-07-16T14:02:34;5.00;;;3.40;;
73980;SDS011;62348;51.412;5.436;2023-07-16T14:05:00;7.63;;;3.83;;
73980;SDS011;62348;51.412;5.436;2023-07-16T14:07:25;5.70;;;3.60;;
73980;SDS011;62348;51.412;5.436;2023-07-16T14:09:51;5.97;;;3.35;;
73980;SDS011;62348;51.412;5.436;2023-07-16T14:12:16;5.80;;;3.13;;
73980;SDS011;62348;51.412;5.436;2023-07-16T14:14:41;5.30;;;3.00;;
73980;SDS011;62348;51.412;5.436;2023-07-16T14:17:07;5.68;;;3.05;;
73980;SDS011;62348;51.412;5.436;2023-07-16T14:19:32;3.88;;;3.10;;
73980;SDS011;62348;51.412;5.436;2023-07-16T14:21:58;8.15;;;3.67;;
73980;SDS011;62348;51.412;5.436;2023-07-16T14:24:23;4.47;;;3.28;;
73980;SDS011;62348;51.412;5.436;2023-07-16T14:26:48;7.60;;;3.25;;
73980;SDS011;62348;51.412;5.436;2023-07-16T14:29:14;6.30;;;3.05;;
73980;SDS011;62348;51.412;5.436;2023-07-16T14:31:40;4.30;;;3.38;;
73980;SDS011;62348;51.412;5.436;2023-07-16T14:34:05;8.32;;;3.80;;
73980;SDS011;62348;51.412;5.436;2023-07-16T14:36:31;7.13;;;3.72;;
73980;SDS011;62348;51.412;5.436;2023-07-16T14:38:57;5.72;;;3.10;;
73980;SDS011;62348;51.412;5.436;2023-07-16T14:41:22;7.50;;;3.20;;
73980;SDS011;62348;51.412;5.436;2023-07-16T14:43:48;8.07;;;4.60;;
73980;SDS011;62348;51.412;5.436;2023-07-16T14:46:15;8.13;;;4.00;;
73980;SDS011;62348;51.412;5.436;2023-07-16T14:48:44;8.18;;;3.53;;
73980;SDS011;62348;51.412;5.436;2023-07-16T14:51:11;8.30;;;3.90;;